Time;durP1;ratioP1;P1;durP2;ratioP2;P2;SDS_P1;SDS_P2;PMS_P1;PMS_P2;Temp;Humidity;BMP_temperature;BMP_pressure;BME280_temperature;BME280_humidity;BME280_pressure;Samples;Min_cycle;Max_cycle;Signal;HPM_P1;HPM_P2
2023/04/12 00:01:51;;;;;;;177.43;162.57;;;9.40;6.00;;;;;;5032827;28;20440;-68
2023/04/12 00:04:17;;;;;;;311.33;290.03;;;9.30;6.90;;;;;;5033246;28;20178;-68
2023/04/12 00:06:47;;;;;;;434.97;409.43;;;9.30;7.30;;;;;;5032959;28;20645;-68
2023/04/12 00:09:14;;;;;;;464.80;432.80;;;9.30;7.90;;;;;;5032980;28;20176;-67
2023/04/12 00:11:40;;;;;;;468.97;435.93;;;9.30;8.90;;;;;;5033004;28;20440;-68
2023/04/12 00:14:05;;;;;;;362.63;335.53;;;9.40;10.00;;;;;;5032846;28;20425;-68
2023/04/12 00:16:31;;;;;;;414.67;385.00;;;9.30;11.10;;;;;;5031569;28;20655;-68
2023/04/12 00:18:57;;;;;;;293.40;271.07;;;;;;;;;;5032564;28;20296;-68
2023/04/12 00:21:23;;;;;;;404.33;375.60;;;;;;;;;;5032489;28;20198;-68
2023/04/12 00:23:49;;;;;;;247.23;229.13;;;9.20;13.10;;;;;;5032557;28;20405;-68
2023/04/12 00:26:15;;;;;;;137.40;124.33;;;9.20;15.70;;;;;;5032828;28;20420;-68
2023/04/12 00:28:41;;;;;;;190.43;174.37;;;9.20;15.40;;;;;;5032638;28;20228;-68
2023/04/12 00:31:07;;;;;;;299.93;279.30;;;9.20;16.10;;;;;;5032450;28;20468;-68
2023/04/12 00:33:33;;;;;;;441.40;414.13;;;9.20;16.70;;;;;;5032415;28;20584;-68
2023/04/12 00:35:59;;;;;;;352.40;327.50;;;9.10;16.80;;;;;;5032403;28;20178;-68
2023/04/12 00:38:25;;;;;;;259.73;240.87;;;9.00;18.40;;;;;;5032528;28;21025;-68
2023/04/12 00:40:50;;;;;;;183.53;169.80;;;9.00;18.40;;;;;;5032354;28;20209;-68
2023/04/12 00:43:17;;;;;;;232.17;216.50;;;9.00;19.20;;;;;;5032046;28;20189;-68
2023/04/12 00:45:44;;;;;;;155.63;141.77;;;8.90;19.40;;;;;;5032300;28;20474;-68
2023/04/12 00:48:10;;;;;;;490.63;461.97;;;9.00;19.90;;;;;;5032170;28;20423;-68
2023/04/12 00:50:35;;;;;;;416.57;389.97;;;9.00;19.90;;;;;;5032132;28;20448;-69
2023/04/12 00:53:03;;;;;;;527.37;493.23;;;;;;;;;;5032253;28;20276;-68
2023/04/12 00:55:29;;;;;;;335.03;311.60;;;9.00;20.40;;;;;;5031959;28;20177;-68
2023/04/12 00:57:55;;;;;;;407.10;381.73;;;9.00;21.50;;;;;;5032194;28;20422;-69
2023/04/12 01:00:21;;;;;;;363.53;337.53;;;8.90;22.60;;;;;;5032050;28;20477;-68
2023/04/12 01:02:49;;;;;;;414.67;388.77;;;8.90;22.60;;;;;;5030433;28;20643;-68
2023/04/12 01:05:20;;;;;;;202.97;188.73;;;8.90;22.60;;;;;;5032246;28;20421;-68
2023/04/12 01:08:22;;;;;;;304.93;287.07;;;9.00;23.30;;;;;;5032036;28;20422;-69
2023/04/12 01:11:07;;;;;;;370.70;348.13;;;9.00;23.50;;;;;;5030714;28;20846;-69
2023/04/12 01:13:43;;;;;;;237.90;221.27;;;9.00;23.70;;;;;;5030460;28;20431;-69
2023/04/12 01:16:27;;;;;;;346.97;325.63;;;9.00;24.60;;;;;;5030660;28;20947;-68
2023/04/12 01:18:58;;;;;;;373.90;351.53;;;9.00;24.60;;;;;;5031877;28;20415;-69
2023/04/12 01:21:30;;;;;;;219.17;203.03;;;9.00;24.60;;;;;;5031790;28;20444;-69
2023/04/12 01:24:35;;;;;;;396.37;369.70;;;8.90;25.40;;;;;;5030403;28;20424;-69
2023/04/12 01:27:02;;;;;;;272.67;252.20;;;8.80;26.20;;;;;;5031890;28;20411;-69
2023/04/12 01:29:29;;;;;;;194.50;179.73;;;8.60;26.60;;;;;;5032049;28;20420;-68
2023/04/12 01:32:00;;;;;;;376.33;349.67;;;8.50;27.50;;;;;;5031537;28;20512;-68
2023/04/12 01:34:29;;;;;;;345.30;321.27;;;8.40;28.10;;;;;;5031777;28;20919;-69
2023/04/12 01:36:57;;;;;;;343.50;320.60;;;8.30;28.60;;;;;;5031724;28;20454;-69
2023/04/12 01:39:23;;;;;;;370.53;344.97;;;8.20;29.70;;;;;;5031619;28;20469;-67
2023/04/12 01:41:49;;;;;;;368.43;342.60;;;8.20;30.00;;;;;;5031365;28;20958;-68
2023/04/12 01:44:15;;;;;;;139.83;128.07;;;8.20;30.10;;;;;;5030302;28;20245;-68
2023/04/12 01:46:43;;;;;;;265.77;249.43;;;8.30;30.50;;;;;;5031605;28;20183;-68
2023/04/12 01:49:11;;;;;;;200.47;184.67;;;8.40;29.70;;;;;;5031529;28;20411;-68
2023/04/12 01:52:25;;;;;;;425.77;396.90;;;8.40;30.60;;;;;;5031244;28;20461;-70
2023/04/12 01:54:56;;;;;;;172.23;158.77;;;8.50;29.70;;;;;;5030418;28;20903;-68
2023/04/12 01:57:23;;;;;;;280.27;262.90;;;8.40;30.00;;;;;;5031592;28;20473;-68
2023/04/12 01:59:50;;;;;;;193.97;177.93;;;8.40;29.90;;;;;;5030141;28;20469;-68
2023/04/12 02:02:16;;;;;;;198.10;183.90;;;8.40;30.50;;;;;;5031161;28;20962;-68
2023/04/12 02:04:43;;;;;;;141.33;129.30;;;8.50;30.60;;;;;;5031446;28;20416;-68
2023/04/12 02:07:08;;;;;;;236.00;220.47;;;8.40;30.30;;;;;;5031432;28;20454;-68
2023/04/12 02:09:37;;;;;;;117.07;106.77;;;8.30;28.60;;;;;;5034472;28;20450;-68
2023/04/12 02:12:04;;;;;;;252.47;234.50;;;8.40;28.90;;;;;;5034823;28;20275;-68
2023/04/12 02:14:30;;;;;;;331.67;310.63;;;8.50;28.70;;;;;;5035176;28;20418;-68
2023/04/12 02:16:57;;;;;;;192.17;178.63;;;8.50;28.70;;;;;;5035260;28;20454;-68
2023/04/12 02:19:23;;;;;;;537.57;504.83;;;8.50;28.90;;;;;;5035079;28;20467;-68
2023/04/12 02:21:49;;;;;;;348.03;325.73;;;8.60;27.80;;;;;;5041561;28;20440;-68
2023/04/12 02:24:14;;;;;;;141.40;129.30;;;8.60;28.50;;;;;;5035622;28;20414;-68
2023/04/12 02:26:40;;;;;;;347.20;328.30;;;8.60;28.60;;;;;;5033621;28;20179;-68
2023/04/12 02:29:08;;;;;;;190.83;175.90;;;8.60;28.70;;;;;;5034892;28;20221;-68
2023/04/12 02:31:35;;;;;;;419.73;393.63;;;8.50;29.30;;;;;;5033151;28;20216;-68
2023/04/12 02:34:01;;;;;;;115.73;105.27;;;8.50;29.60;;;;;;5034675;28;20412;-68
2023/04/12 02:36:27;;;;;;;536.37;501.73;;;8.50;29.80;;;;;;5034693;28;20425;-68
2023/04/12 02:38:53;;;;;;;201.07;186.67;;;8.60;29.10;;;;;;5033413;28;20557;-68
2023/04/12 02:41:19;;;;;;;311.40;290.00;;;8.50;29.70;;;;;;5034467;28;20219;-68
2023/04/12 02:43:46;;;;;;;335.23;312.63;;;8.60;29.50;;;;;;5034399;28;20413;-68
2023/04/12 02:46:18;;;;;;;175.23;160.53;;;8.60;29.80;;;;;;5034641;28;20788;-68
2023/04/12 02:48:44;;;;;;;214.83;197.60;;;8.50;30.60;;;;;;5034503;28;20413;-68
2023/04/12 02:51:10;;;;;;;212.57;195.93;;;8.60;30.30;;;;;;5034275;28;20455;-68
2023/04/12 02:53:36;;;;;;;107.70;97.53;;;8.60;30.30;;;;;;5032907;28;20770;-68
2023/04/12 02:56:04;;;;;;;264.60;245.13;;;8.50;29.90;;;;;;5033143;28;20428;-68
2023/04/12 02:58:29;;;;;;;244.43;226.40;;;8.40;30.00;;;;;;5034327;28;20592;-68
2023/04/12 03:00:58;;;;;;;402.00;373.83;;;8.30;29.90;;;;;;5034134;28;20474;-68
2023/04/12 03:03:25;;;;;;;136.17;124.37;;;8.30;30.10;;;;;;5033812;28;20907;-67
2023/04/12 03:05:51;;;;;;;200.97;186.40;;;8.30;29.80;;;;;;5032894;28;20423;-67
2023/04/12 03:08:18;;;;;;;341.20;316.67;;;8.30;29.20;;;;;;5034268;28;20434;-67
2023/04/12 03:10:43;;;;;;;398.90;371.23;;;8.20;30.00;;;;;;5034287;28;21007;-67
2023/04/12 03:13:09;;;;;;;305.97;284.57;;;8.10;30.40;;;;;;5033731;28;20509;-67
2023/04/12 03:15:35;;;;;;;233.53;217.40;;;8.10;30.30;;;;;;5034203;28;20191;-67
2023/04/12 03:18:01;;;;;;;237.07;219.50;;;8.10;30.30;;;;;;5034021;28;20419;-67
2023/04/12 03:20:27;;;;;;;261.03;242.13;;;8.00;31.10;;;;;;5033652;28;20211;-68
2023/04/12 03:22:52;;;;;;;283.53;263.73;;;8.00;30.90;;;;;;5033593;28;20525;-68
2023/04/12 03:25:18;;;;;;;332.60;313.17;;;7.90;31.20;;;;;;5033793;28;20414;-68
2023/04/12 03:27:44;;;;;;;216.23;201.60;;;7.90;31.90;;;;;;5033748;28;20176;-68
2023/04/12 03:30:12;;;;;;;270.17;250.50;;;8.00;32.70;;;;;;5032181;28;20183;-68
2023/04/12 03:32:39;;;;;;;321.60;301.87;;;8.10;33.10;;;;;;5033268;28;20190;-68
2023/04/12 03:35:06;;;;;;;328.70;310.23;;;8.00;33.90;;;;;;5033703;28;20428;-68
2023/04/12 03:37:32;;;;;;;329.70;311.90;;;8.00;33.60;;;;;;5033579;28;20455;-68
2023/04/12 03:39:58;;;;;;;165.80;152.40;;;8.00;33.50;;;;;;5033424;28;20553;-68
2023/04/12 03:42:23;;;;;;;284.13;263.33;;;8.10;33.20;;;;;;5033120;28;20412;-68
2023/04/12 03:44:51;;;;;;;359.33;334.47;;;8.10;34.00;;;;;;5033377;28;20237;-68
2023/04/12 03:47:16;;;;;;;185.00;170.90;;;8.10;34.00;;;;;;5033220;28;20177;-68
2023/04/12 03:49:42;;;;;;;343.17;321.60;;;8.10;34.10;;;;;;5033304;28;20430;-68
2023/04/12 03:52:08;;;;;;;257.73;240.50;;;8.10;34.20;;;;;;5032932;28;20296;-68
2023/04/12 03:54:33;;;;;;;288.17;266.00;;;8.10;33.70;;;;;;5033243;28;20233;-68
2023/04/12 03:56:59;;;;;;;167.33;153.50;;;8.20;34.10;;;;;;5033431;28;20230;-68
2023/04/12 03:59:24;;;;;;;273.63;255.47;;;8.10;34.70;;;;;;5033080;28;20278;-68
2023/04/12 04:01:50;;;;;;;309.03;287.17;;;8.10;34.10;;;;;;5032772;28;20234;-68
2023/04/12 04:04:15;;;;;;;308.23;285.93;;;8.10;35.50;;;;;;5033080;28;20173;-68
2023/04/12 04:06:41;;;;;;;147.97;135.83;;;8.10;35.40;;;;;;5033277;28;20262;-68
2023/04/12 04:09:06;;;;;;;411.47;384.67;;;8.00;35.00;;;;;;5033023;28;20176;-68
2023/04/12 04:11:32;;;;;;;446.60;418.00;;;8.00;35.50;;;;;;5032697;28;20204;-68
2023/04/12 04:13:57;;;;;;;422.27;394.40;;;8.10;35.80;;;;;;5032915;28;20225;-68
2023/04/12 04:16:23;;;;;;;360.03;336.00;;;8.10;36.20;;;;;;5031416;28;20176;-68
2023/04/12 04:18:49;;;;;;;405.67;381.07;;;8.10;35.50;;;;;;5032740;28;20191;-68
2023/04/12 04:21:14;;;;;;;331.33;309.67;;;8.00;36.50;;;;;;5032783;28;20258;-67
2023/04/12 04:23:43;;;;;;;315.70;295.90;;;8.00;37.00;;;;;;5032503;28;20536;-68
2023/04/12 04:26:09;;;;;;;146.90;134.27;;;8.10;36.20;;;;;;5032737;28;20229;-68
2023/04/12 04:28:41;;;;;;;231.83;214.80;;;8.10;35.60;;;;;;5032583;28;20958;-68
2023/04/12 04:31:09;;;;;;;327.67;303.07;;;8.10;35.50;;;;;;5035072;28;20473;-69
2023/04/12 04:33:34;;;;;;;346.43;321.53;;;8.10;35.50;;;;;;5045260;28;20927;-69
2023/04/12 04:36:01;;;;;;;169.80;156.23;;;8.20;35.20;;;;;;5043321;28;20416;-69
2023/04/12 04:38:27;;;;;;;304.57;283.97;;;8.20;35.00;;;;;;5042887;28;20242;-69
2023/04/12 04:40:52;;;;;;;343.30;322.17;;;8.10;34.30;;;;;;5042773;28;21061;-69
2023/04/12 04:43:19;;;;;;;336.93;316.23;;;8.10;35.50;;;;;;5044103;28;20414;-69
2023/04/12 04:45:48;;;;;;;319.83;297.40;;;8.10;35.50;;;;;;5044655;28;20205;-70
2023/04/12 04:48:13;;;;;;;109.40;98.80;;;8.10;34.50;;;;;;5045290;28;20437;-69
2023/04/12 04:50:39;;;;;;;395.97;367.47;;;8.00;35.40;;;;;;5043423;28;20630;-68
2023/04/12 04:53:05;;;;;;;348.57;324.53;;;8.00;35.30;;;;;;5041473;28;20177;-68
2023/04/12 04:55:30;;;;;;;531.37;487.50;;;8.00;36.20;;;;;;5041551;28;20252;-68
2023/04/12 04:57:56;;;;;;;420.27;391.53;;;7.90;34.70;;;;;;5044552;28;20172;-69
2023/04/12 05:00:24;;;;;;;290.43;269.40;;;7.90;35.40;;;;;;5041335;28;20223;-68
2023/04/12 05:02:50;;;;;;;180.57;166.57;;;7.90;35.70;;;;;;5042919;28;20410;-69
2023/04/12 05:05:16;;;;;;;415.90;386.17;;;7.90;37.20;;;;;;5042109;28;20410;-68
2023/04/12 05:07:42;;;;;;;193.73;178.43;;;7.90;35.90;;;;;;5042806;28;20446;-70
2023/04/12 05:10:09;;;;;;;269.50;250.80;;;7.90;36.80;;;;;;5040969;28;20417;-68
2023/04/12 05:12:35;;;;;;;216.77;199.37;;;7.90;35.40;;;;;;5040373;28;20420;-71
2023/04/12 05:15:01;;;;;;;297.67;276.63;;;7.90;35.70;;;;;;5031977;28;20419;-68
2023/04/12 05:17:27;;;;;;;440.40;410.43;;;8.00;35.40;;;;;;5033691;28;20775;-69
2023/04/12 05:19:53;;;;;;;380.53;352.97;;;8.00;35.40;;;;;;5033146;28;20459;-71
2023/04/12 05:22:21;;;;;;;278.10;256.90;;;8.00;35.40;;;;;;5037329;28;20180;-69
2023/04/12 05:24:47;;;;;;;209.73;193.50;;;8.00;35.40;;;;;;5040860;28;20231;-69
2023/04/12 05:27:15;;;;;;;350.40;326.03;;;8.00;35.50;;;;;;5039811;28;20446;-69
2023/04/12 05:29:43;;;;;;;342.03;319.20;;;8.00;35.40;;;;;;5037975;28;20418;-68
2023/04/12 05:32:09;;;;;;;417.60;389.30;;;8.10;35.60;;;;;;5038339;28;20461;-69
2023/04/12 05:34:36;;;;;;;254.07;236.23;;;8.10;35.40;;;;;;5040956;28;20455;-69
2023/04/12 05:37:02;;;;;;;257.87;240.37;;;8.10;35.60;;;;;;5039179;28;20410;-69
2023/04/12 05:39:28;;;;;;;239.40;220.47;;;8.10;35.10;;;;;;5039469;28;20456;-69
2023/04/12 05:41:54;;;;;;;259.47;239.93;;;8.20;35.60;;;;;;5038957;28;20434;-69
2023/04/12 05:44:19;;;;;;;273.13;251.73;;;8.20;35.50;;;;;;5042112;28;20511;-69
2023/04/12 05:46:45;;;;;;;313.23;290.93;;;8.30;35.70;;;;;;5040308;28;20539;-69
2023/04/12 05:49:11;;;;;;;287.47;269.03;;;8.30;35.70;;;;;;5040767;28;20584;-70
2023/04/12 05:51:36;;;;;;;512.37;475.03;;;8.30;35.70;;;;;;5040598;28;20586;-69
2023/04/12 05:54:05;;;;;;;261.10;241.20;;;8.20;35.60;;;;;;5044358;28;20243;-68
2023/04/12 05:56:31;;;;;;;253.30;235.17;;;8.30;35.70;;;;;;5050464;28;20169;-68
2023/04/12 05:58:57;;;;;;;202.53;186.47;;;8.30;35.70;;;;;;5050745;28;20887;-68
2023/04/12 06:01:23;;;;;;;252.57;233.93;;;8.30;35.90;;;;;;5048841;28;20474;-68
2023/04/12 06:03:50;;;;;;;398.97;372.70;;;8.40;35.80;;;;;;5051214;28;20208;-68
2023/04/12 06:06:16;;;;;;;310.03;289.20;;;8.40;35.30;;;;;;5050668;28;20783;-69
2023/04/12 06:08:41;;;;;;;337.97;314.93;;;8.50;34.80;;;;;;5049996;28;20491;-68
2023/04/12 06:11:08;;;;;;;965.80;894.93;;;8.60;32.90;;;;;;5050961;28;20439;-68
2023/04/12 06:13:33;;;;;;;316.57;294.90;;;8.60;31.00;;;;;;5045081;28;20168;-69
2023/04/12 06:15:59;;;;;;;408.17;380.07;;;8.60;30.80;;;;;;5044858;28;20424;-69
2023/04/12 06:18:25;;;;;;;322.07;299.17;;;8.70;31.10;;;;;;5045902;28;20190;-68
2023/04/12 06:20:50;;;;;;;207.30;190.53;;;8.80;30.90;;;;;;5044716;28;20218;-69
2023/04/12 06:23:18;;;;;;;213.57;197.00;;;8.90;31.00;;;;;;5045428;28;20421;-69
2023/04/12 06:25:43;;;;;;;343.70;317.73;;;8.90;29.70;;;;;;5045383;28;20175;-69
2023/04/12 06:28:09;;;;;;;223.53;206.23;;;8.90;29.80;;;;;;5043976;28;20435;-69
2023/04/12 06:30:34;;;;;;;830.33;771.27;;;8.90;31.00;;;;;;5045455;28;20234;-69
2023/04/12 06:33:00;;;;;;;913.40;833.93;;;8.90;30.00;;;;;;5045649;28;20192;-69
2023/04/12 06:35:25;;;;;;;514.10;475.87;;;8.90;29.60;;;;;;5043902;28;20213;-69
2023/04/12 06:37:51;;;;;;;615.63;573.80;;;9.00;29.40;;;;;;5043437;28;20184;-69
2023/04/12 06:40:17;;;;;;;214.47;197.63;;;9.00;29.40;;;;;;5045498;28;20213;-69
2023/04/12 06:42:42;;;;;;;266.63;246.23;;;9.00;28.70;;;;;;5044362;28;20181;-69
2023/04/12 06:45:08;;;;;;;375.40;348.33;;;9.10;29.60;;;;;;5040592;28;20197;-68
2023/04/12 06:47:34;;;;;;;307.57;283.77;;;9.10;30.00;;;;;;5042097;28;20188;-69
2023/04/12 06:49:59;;;;;;;180.00;164.30;;;9.20;28.90;;;;;;5045616;28;20425;-69
2023/04/12 06:52:25;;;;;;;311.90;285.13;;;9.20;29.70;;;;;;5044285;28;20186;-69
2023/04/12 06:54:51;;;;;;;189.53;172.87;;;9.30;27.60;;;;;;5042358;28;20650;-68
2023/04/12 06:57:17;;;;;;;407.20;381.50;;;9.40;28.40;;;;;;5044583;28;20433;-68
2023/04/12 06:59:42;;;;;;;168.57;154.40;;;9.60;27.90;;;;;;5044611;28;20492;-69
2023/04/12 07:02:08;;;;;;;372.37;345.63;;;9.60;26.90;;;;;;5045755;28;20244;-69
2023/04/12 07:04:33;;;;;;;323.93;299.27;;;9.50;27.20;;;;;;5045260;28;20695;-69
2023/04/12 07:06:59;;;;;;;355.77;327.10;;;9.50;27.40;;;;;;5045406;28;20218;-69
2023/04/12 07:09:25;;;;;;;311.20;288.37;;;9.50;27.20;;;;;;5045226;28;20197;-69
2023/04/12 07:11:50;;;;;;;404.93;376.43;;;9.50;27.20;;;;;;5042844;28;20785;-71
2023/04/12 07:14:16;;;;;;;366.97;342.00;;;9.40;27.80;;;;;;5047478;28;20182;-69
2023/04/12 07:16:42;;;;;;;261.47;240.97;;;9.50;27.90;;;;;;5050805;28;20214;-68
2023/04/12 07:19:07;;;;;;;454.13;423.23;;;9.60;27.90;;;;;;5040734;28;20186;-68
2023/04/12 07:21:33;;;;;;;202.03;186.17;;;9.70;27.30;;;;;;5038650;28;20456;-67
2023/04/12 07:23:59;;;;;;;300.87;277.60;;;9.80;27.40;;;;;;5050221;28;20179;-68
2023/04/12 07:26:25;;;;;;;530.20;492.20;;;9.80;26.60;;;;;;5052548;28;20179;-68
2023/04/12 07:28:50;;;;;;;417.30;388.50;;;9.80;26.70;;;;;;5052086;28;20196;-68
2023/04/12 07:31:16;;;;;;;200.13;184.23;;;9.90;26.30;;;;;;5051636;28;20484;-67
2023/04/12 07:33:42;;;;;;;484.30;449.73;;;10.00;26.80;;;;;;5052025;28;20184;-69
2023/04/12 07:36:08;;;;;;;291.47;269.27;;;10.20;23.40;;;;;;5052421;28;20755;-68
2023/04/12 07:38:34;;;;;;;301.97;280.30;;;10.50;22.90;;;;;;5052344;28;20438;-68
2023/04/12 07:40:59;;;;;;;397.43;370.23;;;10.60;21.00;;;;;;5051556;28;20546;-68
2023/04/12 07:43:25;;;;;;;310.90;289.90;;;10.60;21.10;;;;;;5051677;28;20178;-69
2023/04/12 07:45:50;;;;;;;477.27;443.37;;;10.70;21.10;;;;;;5052043;28;20184;-68
2023/04/12 07:48:16;;;;;;;344.60;319.73;;;10.70;20.30;;;;;;5052503;28;20178;-68
2023/04/12 07:50:42;;;;;;;295.33;272.50;;;10.80;20.30;;;;;;5052009;28;20564;-69
2023/04/12 07:53:19;;;;;;;353.93;329.27;;;10.80;20.20;;;;;;5051708;28;20210;-68
2023/04/12 07:55:45;;;;;;;592.57;553.83;;;11.00;20.10;;;;;;5051486;28;20420;-69
2023/04/12 07:58:11;;;;;;;611.30;569.80;;;11.30;20.40;;;;;;5051172;28;20418;-67
2023/04/12 08:00:36;;;;;;;242.20;223.83;;;11.60;18.80;;;;;;5051155;28;20483;-68
2023/04/12 08:03:02;;;;;;;453.07;421.67;;;11.80;17.30;;;;;;5050426;28;20179;-69
2023/04/12 08:05:27;;;;;;;328.53;304.90;;;12.00;17.60;;;;;;5049276;28;20205;-68
2023/04/12 08:07:53;;;;;;;402.73;373.73;;;12.30;16.80;;;;;;5049966;28;20195;-68
2023/04/12 08:10:18;;;;;;;406.33;376.03;;;12.60;15.80;;;;;;5048924;28;20270;-68
2023/04/12 08:12:44;;;;;;;395.03;367.90;;;12.80;15.70;;;;;;5048737;28;20453;-69
2023/04/12 08:15:10;;;;;;;405.70;376.00;;;12.90;14.20;;;;;;5049343;28;20163;-69
2023/04/12 08:17:35;;;;;;;311.83;289.23;;;12.90;13.50;;;;;;5048685;28;20194;-67
2023/04/12 08:20:03;;;;;;;541.40;502.53;;;12.70;13.90;;;;;;5049128;28;20266;-68
2023/04/12 08:22:29;;;;;;;249.47;230.27;;;12.60;14.10;;;;;;5048647;28;20190;-68
2023/04/12 08:24:55;;;;;;;369.20;342.97;;;12.80;14.30;;;;;;5048770;28;20408;-68
2023/04/12 08:27:20;;;;;;;147.73;135.87;;;12.80;13.80;;;;;;5048496;28;20207;-68
2023/04/12 08:29:46;;;;;;;404.03;375.57;;;13.00;14.20;;;;;;5048219;28;20176;-68
2023/04/12 08:32:11;;;;;;;248.60;230.40;;;13.20;12.80;;;;;;5048377;28;20211;-68
2023/04/12 08:34:37;;;;;;;434.53;406.23;;;13.50;13.00;;;;;;5045202;28;20178;-69
2023/04/12 08:37:03;;;;;;;394.77;367.63;;;13.80;12.30;;;;;;5043890;28;21304;-68
2023/04/12 08:39:31;;;;;;;449.87;416.73;;;14.20;11.40;;;;;;5041928;28;20522;-70
2023/04/12 08:41:57;;;;;;;438.53;407.57;;;14.20;10.40;;;;;;5045514;28;20612;-69
2023/04/12 08:44:34;;;;;;;594.33;552.13;;;14.30;9.90;;;;;;5044528;28;20423;-70
2023/04/12 08:47:04;;;;;;;296.60;274.00;;;14.00;10.80;;;;;;5044567;28;20418;-69
2023/04/12 08:49:31;;;;;;;449.93;417.07;;;13.90;12.30;;;;;;5044376;28;20446;-69
2023/04/12 08:52:05;;;;;;;553.00;512.37;;;13.90;13.20;;;;;;5042644;28;20437;-70
2023/04/12 08:54:34;;;;;;;437.13;405.87;;;13.90;13.70;;;;;;5043013;28;20414;-70
2023/04/12 08:57:03;;;;;;;484.23;448.17;;;13.90;12.30;;;;;;5042270;28;20967;-70
2023/04/12 08:59:30;;;;;;;426.10;395.27;;;14.00;13.60;;;;;;5042628;28;20446;-70
2023/04/12 09:01:57;;;;;;;480.77;445.17;;;13.90;11.60;;;;;;5042676;28;20444;-70
2023/04/12 09:04:25;;;;;;;419.43;390.37;;;14.20;11.00;;;;;;5044081;28;20416;-70
2023/04/12 09:06:50;;;;;;;604.10;558.73;;;14.10;12.50;;;;;;5044088;28;20489;-70
2023/04/12 09:09:16;;;;;;;432.33;399.53;;;14.60;11.40;;;;;;5041994;28;20451;-69
2023/04/12 09:11:42;;;;;;;561.30;517.03;;;14.50;10.50;;;;;;5042359;28;20432;-69
2023/04/12 09:14:24;;;;;;;393.60;363.90;;;14.50;10.10;;;;;;5043480;28;20189;-68
2023/04/12 09:16:50;;;;;;;581.70;538.77;;;14.50;10.00;;;;;;5044355;28;20178;-69
2023/04/12 09:19:29;;;;;;;539.73;497.87;;;14.60;9.80;;;;;;5045167;28;20425;-68
2023/04/12 09:21:55;;;;;;;385.80;358.53;;;14.50;9.10;;;;;;5043979;28;20439;-68
2023/04/12 09:24:24;;;;;;;454.60;419.53;;;14.40;10.30;;;;;;5043827;28;20417;-68
2023/04/12 09:27:09;;;;;;;442.53;410.10;;;14.40;10.30;;;;;;5047085;28;20436;-68
2023/04/12 09:29:35;;;;;;;345.20;319.20;;;14.70;9.70;;;;;;5047458;28;20421;-68
2023/04/12 09:32:02;;;;;;;544.33;504.47;;;14.70;8.70;;;;;;5045196;28;20480;-69
2023/04/12 09:34:28;;;;;;;374.83;345.83;;;14.70;8.50;;;;;;5048101;28;20532;-68
2023/04/12 09:36:54;;;;;;;391.17;360.57;;;14.60;9.20;;;;;;5049425;28;20439;-68
2023/04/12 09:39:32;;;;;;;396.63;366.53;;;14.80;9.20;;;;;;5050430;28;20410;-68
2023/04/12 09:42:10;;;;;;;114.73;104.33;;;15.10;9.10;;;;;;5049260;28;20508;-69
2023/04/12 09:44:36;;;;;;;597.80;554.97;;;15.30;8.60;;;;;;5049457;28;20447;-69
2023/04/12 09:47:03;;;;;;;396.63;364.03;;;15.30;9.50;;;;;;5049176;28;20422;-70
2023/04/12 09:49:38;;;;;;;317.10;292.60;;;15.50;9.30;;;;;;5048654;28;20525;-69
2023/04/12 09:52:05;;;;;;;509.13;469.97;;;15.70;8.30;;;;;;5042101;28;20444;-69
2023/04/12 09:54:36;;;;;;;193.53;177.07;;;15.50;5.80;;;;;;5042453;28;20425;-70
2023/04/12 09:57:05;;;;;;;400.57;371.40;;;15.20;5.90;;;;;;5039472;28;20590;-73
2023/04/12 09:59:35;;;;;;;501.10;464.10;;;15.30;5.30;;;;;;5043646;28;20492;-69
2023/04/12 10:02:03;;;;;;;179.23;163.93;;;15.10;4.80;;;;;;5044940;28;20491;-68
2023/04/12 10:04:30;;;;;;;788.43;707.60;;;15.50;5.10;;;;;;5044146;28;20476;-68
2023/04/12 10:06:59;;;;;;;402.10;372.07;;;15.00;4.10;;;;;;5044893;28;20418;-71
2023/04/12 10:09:25;;;;;;;513.47;475.33;;;15.20;5.00;;;;;;5029381;28;20422;-68
2023/04/12 10:11:52;;;;;;;626.80;578.33;;;15.30;4.30;;;;;;5054018;28;20448;-69
2023/04/12 10:14:20;;;;;;;562.07;519.40;;;15.30;3.20;;;;;;5044680;28;20175;-68
2023/04/12 10:16:47;;;;;;;505.03;467.13;;;15.20;4.30;;;;;;5042710;28;20406;-69
2023/04/12 10:19:13;;;;;;;582.13;534.07;;;15.30;4.00;;;;;;5046756;28;20430;-69
2023/04/12 10:21:39;;;;;;;454.50;420.90;;;14.80;4.00;;;;;;5043015;28;20449;-68
2023/04/12 10:24:08;;;;;;;567.53;523.67;;;15.40;4.40;;;;;;5042241;28;20787;-68
2023/04/12 10:26:34;;;;;;;371.43;344.67;;;15.90;4.10;;;;;;5042367;28;20171;-69
2023/04/12 10:29:23;;;;;;;684.77;634.23;;;15.70;3.50;;;;;;5042722;28;20432;-69
2023/04/12 10:31:49;;;;;;;587.73;544.37;;;15.90;3.90;;;;;;5048646;22;20679;-71
2023/04/12 10:34:15;;;;;;;808.80;734.93;;;15.60;3.90;;;;;;5014031;28;20651;-71
2023/04/12 10:36:52;;;;;;;381.97;352.50;;;15.50;4.50;;;;;;5014241;28;20765;-73
2023/04/12 10:39:18;;;;;;;475.53;439.50;;;15.50;4.50;;;;;;5014492;28;20465;-73
2023/04/12 10:42:26;;;;;;;442.10;408.13;;;15.60;4.60;;;;;;5014122;28;21015;-70
2023/04/12 10:45:15;;;;;;;853.93;764.40;;;15.70;4.60;;;;;;5014498;28;20398;-69
2023/04/12 10:47:47;;;;;;;471.73;437.17;;;15.40;4.40;;;;;;4994576;28;20745;-69
2023/04/12 10:50:26;;;;;;;290.73;266.43;;;14.90;6.50;;;;;;4993462;28;20561;-69
2023/04/12 10:53:14;;;;;;;658.57;597.37;;;15.40;5.90;;;;;;4994196;28;20743;-69
2023/04/12 10:55:41;;;;;;;565.03;524.13;;;15.40;4.90;;;;;;4994448;28;20415;-69
2023/04/12 10:58:07;;;;;;;624.37;575.53;;;15.60;5.30;;;;;;4994461;28;20407;-69
2023/04/12 11:00:55;;;;;;;610.23;565.80;;;16.10;4.50;;;;;;5001196;28;20447;-69
2023/04/12 11:03:21;;;;;;;477.77;444.60;;;16.30;4.60;;;;;;5013691;28;20407;-69
2023/04/12 11:05:57;;;;;;;546.40;506.30;;;15.70;4.70;;;;;;5013809;28;20420;-69
2023/04/12 11:08:23;;;;;;;461.70;426.77;;;16.00;4.80;;;;;;5014112;28;20402;-70
2023/04/12 11:10:49;;;;;;;567.93;525.73;;;16.30;4.50;;;;;;5013836;28;20466;-70
2023/04/12 11:13:15;;;;;;;645.17;599.77;;;16.60;3.30;;;;;;5013825;28;20415;-70
2023/04/12 11:15:41;;;;;;;455.33;421.80;;;16.80;2.70;;;;;;5013387;28;20665;-69
2023/04/12 11:18:06;;;;;;;723.43;663.80;;;17.20;3.10;;;;;;5013718;28;20442;-69
2023/04/12 11:20:33;;;;;;;655.87;607.73;;;17.30;1.30;;;;;;5013757;28;20191;-69
2023/04/12 11:22:59;;;;;;;487.37;451.40;;;17.20;1.80;;;;;;5012063;28;20195;-69
2023/04/12 11:25:25;;;;;;;461.83;427.83;;;17.60;1.60;;;;;;5013673;28;20418;-68
2023/04/12 11:27:52;;;;;;;584.93;542.47;;;17.60;1.50;;;;;;5013089;28;20415;-68
2023/04/12 11:30:18;;;;;;;408.43;378.00;;;17.50;1.50;;;;;;5013448;28;20825;-69
2023/04/12 11:32:44;;;;;;;674.73;609.23;;;17.50;1.30;;;;;;5013235;28;20435;-68
2023/04/12 11:35:12;;;;;;;771.17;697.07;;;17.20;1.00;;;;;;5013586;28;20806;-69
2023/04/12 11:37:38;;;;;;;484.00;448.33;;;16.90;1.00;;;;;;5013392;28;20497;-68
2023/04/12 11:40:04;;;;;;;483.40;447.77;;;16.90;1.70;;;;;;5013176;28;20944;-68
2023/04/12 11:42:31;;;;;;;414.90;383.30;;;16.90;2.00;;;;;;5012602;28;20191;-69
2023/04/12 11:44:57;;;;;;;576.37;535.50;;;16.70;2.40;;;;;;5013670;28;20461;-73
2023/04/12 11:47:24;;;;;;;461.37;426.60;;;16.70;2.00;;;;;;5013309;28;20411;-72
2023/04/12 11:49:52;;;;;;;581.53;537.73;;;16.80;2.60;;;;;;5012900;28;20462;-72
2023/04/12 11:52:18;;;;;;;552.03;505.37;;;16.70;2.10;;;;;;5010801;28;20478;-72
2023/04/12 11:54:49;;;;;;;453.30;420.13;;;16.60;2.20;;;;;;4993604;28;20455;-71
2023/04/12 11:57:17;;;;;;;477.90;443.23;;;16.70;2.40;;;;;;4996512;28;20442;-71
2023/04/12 11:59:44;;;;;;;647.07;598.07;;;16.80;2.80;;;;;;5013198;28;20501;-69
2023/04/12 12:02:11;;;;;;;972.67;886.20;;;16.90;2.10;;;;;;5012866;28;20437;-71
2023/04/12 12:04:38;;;;;;;708.53;662.97;;;16.60;2.00;;;;;;5011664;28;20469;-71
2023/04/12 12:07:05;;;;;;;891.20;817.50;;;16.30;2.80;;;;;;5010402;28;20427;-71
2023/04/12 12:09:31;;;;;;;1093.37;982.17;;;16.50;2.80;;;;;;5004826;28;20430;-71
2023/04/12 12:11:57;;;;;;;1014.57;923.87;;;16.80;2.10;;;;;;4993916;28;21027;-72
2023/04/12 12:14:23;;;;;;;721.00;663.83;;;16.40;2.90;;;;;;5006063;28;20461;-71
2023/04/12 12:16:57;;;;;;;658.60;609.33;;;16.50;3.10;;;;;;5012829;28;20411;-72
2023/04/12 12:19:35;;;;;;;745.30;684.07;;;16.90;2.80;;;;;;4997534;28;20842;-72